sensor_id;sensor_type;location;lat;lon;timestamp;P1;durP1;ratioP1;P2;durP2;ratioP2
9763;SDS011;4921;43.214;27.936;2023-11-19T00:01:58;1.87;;;1.77;;
9763;SDS011;4921;43.214;27.936;2023-11-19T00:04:25;1.70;;;1.60;;
9763;SDS011;4921;43.214;27.936;2023-11-19T00:06:52;1.70;;;1.60;;
9763;SDS011;4921;43.214;27.936;2023-11-19T00:09:19;1.90;;;1.80;;
9763;SDS011;4921;43.214;27.936;2023-11-19T00:11:46;1.60;;;1.50;;
9763;SDS011;4921;43.214;27.936;2023-11-19T00:14:14;1.53;;;1.47;;
9763;SDS011;4921;43.214;27.936;2023-11-19T00:16:42;2.30;;;1.77;;
9763;SDS011;4921;43.214;27.936;2023-11-19T00:19:09;1.83;;;1.73;;
9763;SDS011;4921;43.214;27.936;2023-11-19T00:21:37;2.73;;;1.70;;
9763;SDS011;4921;43.214;27.936;2023-11-19T00:24:04;2.17;;;2.00;;
9763;SDS011;4921;43.214;27.936;2023-11-19T00:26:31;1.80;;;1.70;;
9763;SDS011;4921;43.214;27.936;2023-11-19T00:28:59;2.63;;;1.83;;
9763;SDS011;4921;43.214;27.936;2023-11-19T00:31:27;2.10;;;1.90;;
9763;SDS011;4921;43.214;27.936;2023-11-19T00:33:54;1.70;;;1.60;;
9763;SDS011;4921;43.214;27.936;2023-11-19T00:36:21;2.00;;;1.90;;
9763;SDS011;4921;43.214;27.936;2023-11-19T00:38:49;2.33;;;2.13;;
9763;SDS011;4921;43.214;27.936;2023-11-19T00:41:17;2.40;;;2.20;;
9763;SDS011;4921;43.214;27.936;2023-11-19T00:43:44;1.97;;;1.87;;
9763;SDS011;4921;43.214;27.936;2023-11-19T00:46:11;2.47;;;2.30;;
9763;SDS011;4921;43.214;27.936;2023-11-19T00:48:40;2.00;;;1.90;;
9763;SDS011;4921;43.214;27.936;2023-11-19T00:51:07;2.60;;;2.40;;
9763;SDS011;4921;43.214;27.936;2023-11-19T00:53:34;2.27;;;2.17;;
9763;SDS011;4921;43.214;27.936;2023-11-19T00:56:01;2.17;;;2.07;;
9763;SDS011;4921;43.214;27.936;2023-11-19T00:58:28;2.60;;;2.40;;
9763;SDS011;4921;43.214;27.936;2023-11-19T01:00:55;2.73;;;2.53;;
9763;SDS011;4921;43.214;27.936;2023-11-19T01:03:23;2.27;;;2.07;;
9763;SDS011;4921;43.214;27.936;2023-11-19T01:05:51;2.43;;;2.23;;
9763;SDS011;4921;43.214;27.936;2023-11-19T01:08:18;2.90;;;2.70;;
9763;SDS011;4921;43.214;27.936;2023-11-19T01:10:45;2.83;;;2.63;;
9763;SDS011;4921;43.214;27.936;2023-11-19T01:13:13;2.70;;;2.50;;
9763;SDS011;4921;43.214;27.936;2023-11-19T01:15:39;2.80;;;2.60;;
9763;SDS011;4921;43.214;27.936;2023-11-19T01:18:08;3.00;;;2.77;;
9763;SDS011;4921;43.214;27.936;2023-11-19T01:20:36;2.60;;;2.40;;
9763;SDS011;4921;43.214;27.936;2023-11-19T01:23:04;2.50;;;2.40;;
9763;SDS011;4921;43.214;27.936;2023-11-19T01:25:33;2.67;;;2.53;;
9763;SDS011;4921;43.214;27.936;2023-11-19T01:28:00;2.97;;;2.77;;
9763;SDS011;4921;43.214;27.936;2023-11-19T01:30:27;2.53;;;2.37;;
9763;SDS011;4921;43.214;27.936;2023-11-19T01:32:54;3.07;;;2.87;;
9763;SDS011;4921;43.214;27.936;2023-11-19T01:35:21;3.20;;;2.90;;
9763;SDS011;4921;43.214;27.936;2023-11-19T01:37:48;2.87;;;2.67;;
9763;SDS011;4921;43.214;27.936;2023-11-19T01:40:19;3.00;;;2.80;;
9763;SDS011;4921;43.214;27.936;2023-11-19T01:42:47;2.60;;;2.40;;
9763;SDS011;4921;43.214;27.936;2023-11-19T01:45:19;2.60;;;2.50;;
9763;SDS011;4921;43.214;27.936;2023-11-19T01:47:51;2.93;;;2.73;;
9763;SDS011;4921;43.214;27.936;2023-11-19T01:50:18;3.30;;;2.80;;
9763;SDS011;4921;43.214;27.936;2023-11-19T01:52:46;2.60;;;2.43;;
9763;SDS011;4921;43.214;27.936;2023-11-19T01:55:13;2.93;;;2.73;;
9763;SDS011;4921;43.214;27.936;2023-11-19T01:57:42;2.93;;;2.73;;
9763;SDS011;4921;43.214;27.936;2023-11-19T02:00:09;3.07;;;2.87;;
9763;SDS011;4921;43.214;27.936;2023-11-19T02:02:38;3.10;;;2.90;;
9763;SDS011;4921;43.214;27.936;2023-11-19T02:05:06;3.00;;;2.80;;
9763;SDS011;4921;43.214;27.936;2023-11-19T02:07:33;2.90;;;2.70;;
9763;SDS011;4921;43.214;27.936;2023-11-19T02:10:00;3.17;;;2.70;;
9763;SDS011;4921;43.214;27.936;2023-11-19T02:12:30;3.00;;;2.80;;
9763;SDS011;4921;43.214;27.936;2023-11-19T02:15:00;3.23;;;3.03;;
9763;SDS011;4921;43.214;27.936;2023-11-19T02:17:27;2.90;;;2.70;;
9763;SDS011;4921;43.214;27.936;2023-11-19T02:19:56;2.83;;;2.63;;
9763;SDS011;4921;43.214;27.936;2023-11-19T02:22:23;2.90;;;2.70;;
9763;SDS011;4921;43.214;27.936;2023-11-19T02:24:51;3.53;;;3.23;;
9763;SDS011;4921;43.214;27.936;2023-11-19T02:27:23;3.37;;;3.17;;
9763;SDS011;4921;43.214;27.936;2023-11-19T02:29:58;3.17;;;2.97;;
9763;SDS011;4921;43.214;27.936;2023-11-19T02:32:27;2.97;;;2.77;;
9763;SDS011;4921;43.214;27.936;2023-11-19T02:34:56;3.43;;;3.23;;
9763;SDS011;4921;43.214;27.936;2023-11-19T02:37:22;2.97;;;2.77;;
9763;SDS011;4921;43.214;27.936;2023-11-19T02:39:49;3.47;;;3.20;;
9763;SDS011;4921;43.214;27.936;2023-11-19T02:42:16;3.23;;;2.93;;
9763;SDS011;4921;43.214;27.936;2023-11-19T02:44:44;3.27;;;3.07;;
9763;SDS011;4921;43.214;27.936;2023-11-19T02:47:12;4.43;;;3.20;;
9763;SDS011;4921;43.214;27.936;2023-11-19T02:49:39;3.30;;;3.00;;
9763;SDS011;4921;43.214;27.936;2023-11-19T02:52:08;3.50;;;3.20;;
9763;SDS011;4921;43.214;27.936;2023-11-19T02:54:35;3.87;;;3.37;;
9763;SDS011;4921;43.214;27.936;2023-11-19T02:57:02;3.30;;;3.07;;
9763;SDS011;4921;43.214;27.936;2023-11-19T02:59:30;4.17;;;3.77;;
9763;SDS011;4921;43.214;27.936;2023-11-19T03:02:04;6.07;;;3.80;;
9763;SDS011;4921;43.214;27.936;2023-11-19T03:04:33;4.27;;;3.87;;
9763;SDS011;4921;43.214;27.936;2023-11-19T03:07:00;4.80;;;3.90;;
9763;SDS011;4921;43.214;27.936;2023-11-19T03:09:27;5.07;;;4.10;;
9763;SDS011;4921;43.214;27.936;2023-11-19T03:11:54;4.80;;;4.40;;
9763;SDS011;4921;43.214;27.936;2023-11-19T03:14:21;4.83;;;4.43;;
9763;SDS011;4921;43.214;27.936;2023-11-19T03:16:49;5.83;;;5.20;;
9763;SDS011;4921;43.214;27.936;2023-11-19T03:19:16;5.63;;;5.03;;
9763;SDS011;4921;43.214;27.936;2023-11-19T03:21:44;5.90;;;5.40;;
9763;SDS011;4921;43.214;27.936;2023-11-19T03:24:13;6.83;;;5.27;;
9763;SDS011;4921;43.214;27.936;2023-11-19T03:26:40;7.43;;;6.73;;
9763;SDS011;4921;43.214;27.936;2023-11-19T03:29:07;6.47;;;5.87;;
9763;SDS011;4921;43.214;27.936;2023-11-19T03:31:34;6.47;;;5.63;;
9763;SDS011;4921;43.214;27.936;2023-11-19T03:34:01;6.37;;;5.77;;
9763;SDS011;4921;43.214;27.936;2023-11-19T03:36:31;6.13;;;5.47;;
9763;SDS011;4921;43.214;27.936;2023-11-19T03:39:00;6.53;;;5.93;;
9763;SDS011;4921;43.214;27.936;2023-11-19T03:41:28;6.83;;;6.13;;
9763;SDS011;4921;43.214;27.936;2023-11-19T03:43:55;6.40;;;5.80;;
9763;SDS011;4921;43.214;27.936;2023-11-19T03:46:22;7.70;;;6.70;;
9763;SDS011;4921;43.214;27.936;2023-11-19T03:48:49;6.70;;;5.97;;
9763;SDS011;4921;43.214;27.936;2023-11-19T03:51:16;7.73;;;6.40;;
9763;SDS011;4921;43.214;27.936;2023-11-19T03:53:43;7.93;;;6.73;;
9763;SDS011;4921;43.214;27.936;2023-11-19T03:56:13;10.00;;;6.50;;
9763;SDS011;4921;43.214;27.936;2023-11-19T03:58:40;7.57;;;6.70;;
9763;SDS011;4921;43.214;27.936;2023-11-19T04:01:10;8.67;;;7.10;;
9763;SDS011;4921;43.214;27.936;2023-11-19T04:03:38;7.63;;;6.67;;
9763;SDS011;4921;43.214;27.936;2023-11-19T04:06:05;9.57;;;7.43;;
9763;SDS011;4921;43.214;27.936;2023-11-19T04:08:33;9.43;;;8.00;;
9763;SDS011;4921;43.214;27.936;2023-11-19T04:11:01;8.57;;;7.67;;
9763;SDS011;4921;43.214;27.936;2023-11-19T04:13:29;8.07;;;7.27;;
9763;SDS011;4921;43.214;27.936;2023-11-19T04:15:56;7.90;;;6.93;;
9763;SDS011;4921;43.214;27.936;2023-11-19T04:18:23;9.13;;;7.30;;
9763;SDS011;4921;43.214;27.936;2023-11-19T04:20:50;7.57;;;6.77;;
9763;SDS011;4921;43.214;27.936;2023-11-19T04:23:17;8.17;;;7.27;;
9763;SDS011;4921;43.214;27.936;2023-11-19T04:25:44;10.10;;;7.70;;
9763;SDS011;4921;43.214;27.936;2023-11-19T04:28:11;8.20;;;7.37;;
9763;SDS011;4921;43.214;27.936;2023-11-19T04:30:39;8.80;;;7.73;;
9763;SDS011;4921;43.214;27.936;2023-11-19T04:33:06;9.17;;;7.33;;
9763;SDS011;4921;43.214;27.936;2023-11-19T04:35:33;8.13;;;7.27;;
9763;SDS011;4921;43.214;27.936;2023-11-19T04:38:00;9.13;;;7.57;;
9763;SDS011;4921;43.214;27.936;2023-11-19T04:40:27;7.90;;;6.93;;
9763;SDS011;4921;43.214;27.936;2023-11-19T04:42:54;8.60;;;7.67;;
9763;SDS011;4921;43.214;27.936;2023-11-19T04:45:21;8.00;;;7.20;;
9763;SDS011;4921;43.214;27.936;2023-11-19T04:47:49;7.97;;;7.17;;
9763;SDS011;4921;43.214;27.936;2023-11-19T04:50:16;9.40;;;7.00;;
9763;SDS011;4921;43.214;27.936;2023-11-19T04:52:44;10.00;;;7.90;;
9763;SDS011;4921;43.214;27.936;2023-11-19T04:55:12;7.93;;;7.13;;
9763;SDS011;4921;43.214;27.936;2023-11-19T04:57:39;9.03;;;7.67;;
9763;SDS011;4921;43.214;27.936;2023-11-19T05:00:07;8.63;;;7.73;;
9763;SDS011;4921;43.214;27.936;2023-11-19T05:02:36;9.40;;;7.97;;
9763;SDS011;4921;43.214;27.936;2023-11-19T05:05:05;9.40;;;8.03;;
9763;SDS011;4921;43.214;27.936;2023-11-19T05:07:32;10.10;;;8.50;;
9763;SDS011;4921;43.214;27.936;2023-11-19T05:09:59;9.30;;;8.23;;
9763;SDS011;4921;43.214;27.936;2023-11-19T05:12:26;9.07;;;8.10;;
9763;SDS011;4921;43.214;27.936;2023-11-19T05:14:53;10.57;;;7.87;;
9763;SDS011;4921;43.214;27.936;2023-11-19T05:17:20;9.53;;;8.30;;
9763;SDS011;4921;43.214;27.936;2023-11-19T05:19:47;9.20;;;8.20;;
9763;SDS011;4921;43.214;27.936;2023-11-19T05:22:15;10.30;;;8.00;;
9763;SDS011;4921;43.214;27.936;2023-11-19T05:24:43;12.10;;;8.13;;
9763;SDS011;4921;43.214;27.936;2023-11-19T05:27:10;11.13;;;8.40;;
9763;SDS011;4921;43.214;27.936;2023-11-19T05:29:38;11.27;;;8.47;;
9763;SDS011;4921;43.214;27.936;2023-11-19T05:32:06;9.17;;;8.20;;
9763;SDS011;4921;43.214;27.936;2023-11-19T05:34:33;10.17;;;8.43;;
9763;SDS011;4921;43.214;27.936;2023-11-19T05:37:00;11.20;;;7.67;;
9763;SDS011;4921;43.214;27.936;2023-11-19T05:39:29;9.70;;;7.40;;
9763;SDS011;4921;43.214;27.936;2023-11-19T05:41:56;9.17;;;7.33;;
9763;SDS011;4921;43.214;27.936;2023-11-19T05:44:23;9.23;;;7.77;;
9763;SDS011;4921;43.214;27.936;2023-11-19T05:46:50;8.70;;;7.77;;
9763;SDS011;4921;43.214;27.936;2023-11-19T05:49:17;9.40;;;6.83;;
9763;SDS011;4921;43.214;27.936;2023-11-19T05:51:44;8.43;;;7.53;;
9763;SDS011;4921;43.214;27.936;2023-11-19T05:54:11;8.73;;;7.83;;
9763;SDS011;4921;43.214;27.936;2023-11-19T05:56:40;7.87;;;7.07;;
9763;SDS011;4921;43.214;27.936;2023-11-19T05:59:07;7.77;;;6.87;;
9763;SDS011;4921;43.214;27.936;2023-11-19T06:01:40;7.97;;;7.17;;
9763;SDS011;4921;43.214;27.936;2023-11-19T06:04:08;8.90;;;6.80;;
9763;SDS011;4921;43.214;27.936;2023-11-19T06:06:35;13.03;;;7.40;;
9763;SDS011;4921;43.214;27.936;2023-11-19T06:09:02;7.30;;;6.60;;
9763;SDS011;4921;43.214;27.936;2023-11-19T06:11:31;9.57;;;7.43;;
9763;SDS011;4921;43.214;27.936;2023-11-19T06:14:00;7.87;;;7.07;;
9763;SDS011;4921;43.214;27.936;2023-11-19T06:16:27;6.83;;;6.23;;
9763;SDS011;4921;43.214;27.936;2023-11-19T06:18:54;7.57;;;6.67;;
9763;SDS011;4921;43.214;27.936;2023-11-19T06:21:21;7.63;;;5.97;;
9763;SDS011;4921;43.214;27.936;2023-11-19T06:23:48;7.43;;;6.73;;
9763;SDS011;4921;43.214;27.936;2023-11-19T06:26:17;6.53;;;5.93;;
9763;SDS011;4921;43.214;27.936;2023-11-19T06:28:44;7.73;;;5.90;;
9763;SDS011;4921;43.214;27.936;2023-11-19T06:31:13;7.23;;;6.53;;
9763;SDS011;4921;43.214;27.936;2023-11-19T06:33:41;7.10;;;6.30;;
9763;SDS011;4921;43.214;27.936;2023-11-19T06:36:08;8.53;;;6.53;;
9763;SDS011;4921;43.214;27.936;2023-11-19T06:38:35;7.97;;;6.20;;
9763;SDS011;4921;43.214;27.936;2023-11-19T06:41:05;9.10;;;5.93;;
9763;SDS011;4921;43.214;27.936;2023-11-19T06:43:33;8.23;;;6.30;;
9763;SDS011;4921;43.214;27.936;2023-11-19T06:46:00;7.47;;;5.83;;
9763;SDS011;4921;43.214;27.936;2023-11-19T06:48:32;8.07;;;6.33;;
9763;SDS011;4921;43.214;27.936;2023-11-19T06:50:59;6.67;;;6.07;;
9763;SDS011;4921;43.214;27.936;2023-11-19T06:53:26;7.27;;;6.50;;
9763;SDS011;4921;43.214;27.936;2023-11-19T06:55:55;6.90;;;6.30;;
9763;SDS011;4921;43.214;27.936;2023-11-19T06:58:22;7.67;;;6.23;;
9763;SDS011;4921;43.214;27.936;2023-11-19T07:00:49;6.90;;;6.30;;
9763;SDS011;4921;43.214;27.936;2023-11-19T07:03:16;8.50;;;7.03;;
9763;SDS011;4921;43.214;27.936;2023-11-19T07:05:44;7.90;;;6.50;;
9763;SDS011;4921;43.214;27.936;2023-11-19T07:08:11;6.93;;;6.23;;
9763;SDS011;4921;43.214;27.936;2023-11-19T07:10:38;6.97;;;6.30;;
9763;SDS011;4921;43.214;27.936;2023-11-19T07:13:05;6.60;;;5.87;;
9763;SDS011;4921;43.214;27.936;2023-11-19T07:15:32;9.63;;;6.80;;
9763;SDS011;4921;43.214;27.936;2023-11-19T07:17:59;8.30;;;6.60;;
9763;SDS011;4921;43.214;27.936;2023-11-19T07:20:26;7.43;;;6.67;;
9763;SDS011;4921;43.214;27.936;2023-11-19T07:22:55;8.20;;;7.30;;
9763;SDS011;4921;43.214;27.936;2023-11-19T07:25:22;8.40;;;6.90;;
9763;SDS011;4921;43.214;27.936;2023-11-19T07:27:51;8.10;;;6.83;;
9763;SDS011;4921;43.214;27.936;2023-11-19T07:30:18;7.77;;;6.97;;
9763;SDS011;4921;43.214;27.936;2023-11-19T07:32:45;9.30;;;7.73;;
9763;SDS011;4921;43.214;27.936;2023-11-19T07:35:12;7.80;;;7.00;;
9763;SDS011;4921;43.214;27.936;2023-11-19T07:37:39;7.60;;;6.87;;
9763;SDS011;4921;43.214;27.936;2023-11-19T07:40:08;10.33;;;7.23;;
9763;SDS011;4921;43.214;27.936;2023-11-19T07:42:36;7.30;;;6.60;;
9763;SDS011;4921;43.214;27.936;2023-11-19T07:45:03;7.90;;;7.10;;
9763;SDS011;4921;43.214;27.936;2023-11-19T07:47:32;7.87;;;7.10;;
9763;SDS011;4921;43.214;27.936;2023-11-19T07:49:59;9.10;;;7.50;;
9763;SDS011;4921;43.214;27.936;2023-11-19T07:52:26;8.40;;;7.50;;
9763;SDS011;4921;43.214;27.936;2023-11-19T07:54:54;8.23;;;7.43;;
9763;SDS011;4921;43.214;27.936;2023-11-19T07:57:22;7.33;;;6.63;;
9763;SDS011;4921;43.214;27.936;2023-11-19T07:59:52;8.73;;;7.10;;
9763;SDS011;4921;43.214;27.936;2023-11-19T08:02:19;7.87;;;7.13;;
9763;SDS011;4921;43.214;27.936;2023-11-19T08:04:46;8.00;;;7.20;;
9763;SDS011;4921;43.214;27.936;2023-11-19T08:07:16;7.57;;;6.83;;
9763;SDS011;4921;43.214;27.936;2023-11-19T08:09:44;8.07;;;7.10;;
9763;SDS011;4921;43.214;27.936;2023-11-19T08:12:10;7.77;;;7.07;;
9763;SDS011;4921;43.214;27.936;2023-11-19T08:14:41;7.67;;;6.77;;
9763;SDS011;4921;43.214;27.936;2023-11-19T08:17:09;8.33;;;7.53;;
9763;SDS011;4921;43.214;27.936;2023-11-19T08:19:36;8.00;;;7.20;;
9763;SDS011;4921;43.214;27.936;2023-11-19T08:22:03;7.63;;;6.90;;
9763;SDS011;4921;43.214;27.936;2023-11-19T08:24:30;7.90;;;7.10;;
9763;SDS011;4921;43.214;27.936;2023-11-19T08:26:57;8.00;;;6.37;;
9763;SDS011;4921;43.214;27.936;2023-11-19T08:29:24;7.90;;;7.00;;
9763;SDS011;4921;43.214;27.936;2023-11-19T08:31:52;7.50;;;6.63;;
9763;SDS011;4921;43.214;27.936;2023-11-19T08:34:20;8.80;;;6.70;;
9763;SDS011;4921;43.214;27.936;2023-11-19T08:36:49;8.67;;;7.63;;
9763;SDS011;4921;43.214;27.936;2023-11-19T08:39:18;9.03;;;6.93;;
9763;SDS011;4921;43.214;27.936;2023-11-19T08:41:46;8.07;;;7.27;;
9763;SDS011;4921;43.214;27.936;2023-11-19T08:44:13;9.20;;;7.33;;
9763;SDS011;4921;43.214;27.936;2023-11-19T08:46:45;7.73;;;6.93;;
9763;SDS011;4921;43.214;27.936;2023-11-19T08:49:16;7.10;;;6.33;;
9763;SDS011;4921;43.214;27.936;2023-11-19T08:51:43;10.03;;;6.70;;
9763;SDS011;4921;43.214;27.936;2023-11-19T08:54:10;7.87;;;7.07;;
9763;SDS011;4921;43.214;27.936;2023-11-19T08:56:38;7.60;;;6.53;;
9763;SDS011;4921;43.214;27.936;2023-11-19T08:59:05;8.03;;;6.77;;
9763;SDS011;4921;43.214;27.936;2023-11-19T09:01:33;7.70;;;6.83;;
9763;SDS011;4921;43.214;27.936;2023-11-19T09:04:01;8.10;;;7.30;;
9763;SDS011;4921;43.214;27.936;2023-11-19T09:06:29;8.83;;;6.70;;
9763;SDS011;4921;43.214;27.936;2023-11-19T09:08:57;8.17;;;7.37;;
9763;SDS011;4921;43.214;27.936;2023-11-19T09:11:27;7.27;;;6.57;;
9763;SDS011;4921;43.214;27.936;2023-11-19T09:13:54;9.73;;;6.80;;
9763;SDS011;4921;43.214;27.936;2023-11-19T09:16:21;7.07;;;6.27;;
9763;SDS011;4921;43.214;27.936;2023-11-19T09:18:48;7.10;;;6.40;;
9763;SDS011;4921;43.214;27.936;2023-11-19T09:21:15;7.73;;;6.50;;
9763;SDS011;4921;43.214;27.936;2023-11-19T09:23:44;7.67;;;6.87;;
9763;SDS011;4921;43.214;27.936;2023-11-19T09:26:13;7.37;;;6.23;;
9763;SDS011;4921;43.214;27.936;2023-11-19T09:28:40;7.47;;;6.33;;
9763;SDS011;4921;43.214;27.936;2023-11-19T09:31:17;8.33;;;6.80;;
9763;SDS011;4921;43.214;27.936;2023-11-19T09:33:44;8.90;;;6.63;;
9763;SDS011;4921;43.214;27.936;2023-11-19T09:36:12;8.30;;;6.83;;
9763;SDS011;4921;43.214;27.936;2023-11-19T09:38:41;8.40;;;7.47;;
9763;SDS011;4921;43.214;27.936;2023-11-19T09:41:10;8.73;;;6.80;;
9763;SDS011;4921;43.214;27.936;2023-11-19T09:43:38;7.17;;;6.47;;
9763;SDS011;4921;43.214;27.936;2023-11-19T09:46:07;9.23;;;7.07;;
9763;SDS011;4921;43.214;27.936;2023-11-19T09:48:37;7.43;;;6.47;;
9763;SDS011;4921;43.214;27.936;2023-11-19T09:51:05;7.23;;;6.60;;
9763;SDS011;4921;43.214;27.936;2023-11-19T09:53:33;7.60;;;6.73;;
9763;SDS011;4921;43.214;27.936;2023-11-19T09:56:01;7.80;;;7.00;;
9763;SDS011;4921;43.214;27.936;2023-11-19T09:58:30;7.17;;;6.47;;
9763;SDS011;4921;43.214;27.936;2023-11-19T10:00:58;8.07;;;7.23;;
9763;SDS011;4921;43.214;27.936;2023-11-19T10:03:26;7.73;;;6.70;;
9763;SDS011;4921;43.214;27.936;2023-11-19T10:05:55;7.27;;;6.43;;
9763;SDS011;4921;43.214;27.936;2023-11-19T10:08:22;7.97;;;7.17;;
9763;SDS011;4921;43.214;27.936;2023-11-19T10:10:49;7.53;;;6.80;;
9763;SDS011;4921;43.214;27.936;2023-11-19T10:13:17;8.20;;;7.40;;
9763;SDS011;4921;43.214;27.936;2023-11-19T10:15:45;9.37;;;7.07;;
9763;SDS011;4921;43.214;27.936;2023-11-19T10:18:15;8.33;;;7.37;;
9763;SDS011;4921;43.214;27.936;2023-11-19T10:20:42;8.33;;;7.47;;
9763;SDS011;4921;43.214;27.936;2023-11-19T10:23:10;8.70;;;7.00;;
9763;SDS011;4921;43.214;27.936;2023-11-19T10:25:37;8.10;;;6.93;;
9763;SDS011;4921;43.214;27.936;2023-11-19T10:28:04;7.77;;;6.87;;
9763;SDS011;4921;43.214;27.936;2023-11-19T10:30:40;8.33;;;7.33;;
9763;SDS011;4921;43.214;27.936;2023-11-19T10:33:10;7.90;;;7.10;;
9763;SDS011;4921;43.214;27.936;2023-11-19T10:35:51;12.33;;;7.83;;
9763;SDS011;4921;43.214;27.936;2023-11-19T10:38:19;10.53;;;7.67;;
9763;SDS011;4921;43.214;27.936;2023-11-19T10:40:47;8.10;;;7.30;;
9763;SDS011;4921;43.214;27.936;2023-11-19T10:43:14;7.67;;;6.97;;
9763;SDS011;4921;43.214;27.936;2023-11-19T10:45:42;7.00;;;6.30;;
9763;SDS011;4921;43.214;27.936;2023-11-19T10:48:11;6.83;;;6.23;;
9763;SDS011;4921;43.214;27.936;2023-11-19T10:50:38;7.40;;;6.70;;
9763;SDS011;4921;43.214;27.936;2023-11-19T10:53:06;9.37;;;5.97;;
9763;SDS011;4921;43.214;27.936;2023-11-19T10:55:35;6.90;;;6.20;;
9763;SDS011;4921;43.214;27.936;2023-11-19T10:58:04;6.80;;;5.80;;
9763;SDS011;4921;43.214;27.936;2023-11-19T11:00:34;7.33;;;6.00;;
9763;SDS011;4921;43.214;27.936;2023-11-19T11:03:08;6.90;;;6.20;;
9763;SDS011;4921;43.214;27.936;2023-11-19T11:05:42;7.17;;;5.77;;
9763;SDS011;4921;43.214;27.936;2023-11-19T11:08:09;6.17;;;5.57;;
9763;SDS011;4921;43.214;27.936;2023-11-19T11:10:39;7.27;;;6.10;;
9763;SDS011;4921;43.214;27.936;2023-11-19T11:13:09;6.50;;;5.90;;
9763;SDS011;4921;43.214;27.936;2023-11-19T11:15:37;7.83;;;6.40;;
9763;SDS011;4921;43.214;27.936;2023-11-19T11:18:05;7.53;;;6.17;;
9763;SDS011;4921;43.214;27.936;2023-11-19T11:20:37;7.37;;;6.50;;
9763;SDS011;4921;43.214;27.936;2023-11-19T11:26:20;7.63;;;5.77;;
9763;SDS011;4921;43.214;27.936;2023-11-19T11:29:02;5.50;;;5.00;;
9763;SDS011;4921;43.214;27.936;2023-11-19T11:31:35;6.67;;;6.03;;
9763;SDS011;4921;43.214;27.936;2023-11-19T11:34:34;5.60;;;5.10;;
9763;SDS011;4921;43.214;27.936;2023-11-19T11:37:32;5.60;;;5.10;;
9763;SDS011;4921;43.214;27.936;2023-11-19T11:40:01;7.00;;;6.20;;
9763;SDS011;4921;43.214;27.936;2023-11-19T11:42:35;7.33;;;6.37;;
9763;SDS011;4921;43.214;27.936;2023-11-19T11:45:04;6.70;;;5.67;;
9763;SDS011;4921;43.214;27.936;2023-11-19T11:50:48;6.70;;;5.90;;
9763;SDS011;4921;43.214;27.936;2023-11-19T11:53:18;6.40;;;5.80;;
9763;SDS011;4921;43.214;27.936;2023-11-19T11:55:54;7.00;;;6.30;;
9763;SDS011;4921;43.214;27.936;2023-11-19T12:01:10;7.53;;;6.83;;
9763;SDS011;4921;43.214;27.936;2023-11-19T12:03:45;7.57;;;6.77;;
9763;SDS011;4921;43.214;27.936;2023-11-19T12:06:12;8.67;;;6.77;;
9763;SDS011;4921;43.214;27.936;2023-11-19T12:08:41;6.27;;;5.73;;
9763;SDS011;4921;43.214;27.936;2023-11-19T12:11:08;7.47;;;6.70;;
9763;SDS011;4921;43.214;27.936;2023-11-19T12:13:52;7.23;;;6.53;;
9763;SDS011;4921;43.214;27.936;2023-11-19T12:16:23;9.87;;;7.70;;
9763;SDS011;4921;43.214;27.936;2023-11-19T12:18:52;9.97;;;7.27;;
9763;SDS011;4921;43.214;27.936;2023-11-19T12:21:30;8.23;;;7.27;;
9763;SDS011;4921;43.214;27.936;2023-11-19T12:23:59;8.60;;;7.50;;
9763;SDS011;4921;43.214;27.936;2023-11-19T12:26:36;8.20;;;7.40;;
9763;SDS011;4921;43.214;27.936;2023-11-19T12:29:04;7.63;;;6.83;;
9763;SDS011;4921;43.214;27.936;2023-11-19T12:31:32;8.73;;;7.83;;
9763;SDS011;4921;43.214;27.936;2023-11-19T12:34:08;8.13;;;7.33;;
9763;SDS011;4921;43.214;27.936;2023-11-19T12:36:37;8.67;;;7.77;;
9763;SDS011;4921;43.214;27.936;2023-11-19T12:39:10;8.13;;;7.37;;
9763;SDS011;4921;43.214;27.936;2023-11-19T12:41:48;8.17;;;7.37;;
9763;SDS011;4921;43.214;27.936;2023-11-19T12:44:19;8.73;;;7.40;;
9763;SDS011;4921;43.214;27.936;2023-11-19T12:46:46;8.80;;;7.90;;
9763;SDS011;4921;43.214;27.936;2023-11-19T12:52:11;9.77;;;8.60;;
9763;SDS011;4921;43.214;27.936;2023-11-19T12:54:40;9.07;;;8.10;;
9763;SDS011;4921;43.214;27.936;2023-11-19T12:57:07;9.30;;;8.40;;
9763;SDS011;4921;43.214;27.936;2023-11-19T12:59:34;8.97;;;8.07;;
9763;SDS011;4921;43.214;27.936;2023-11-19T13:02:01;9.60;;;8.07;;
9763;SDS011;4921;43.214;27.936;2023-11-19T13:04:30;9.17;;;8.23;;
9763;SDS011;4921;43.214;27.936;2023-11-19T13:06:57;8.43;;;7.63;;
9763;SDS011;4921;43.214;27.936;2023-11-19T13:09:25;9.03;;;8.13;;
9763;SDS011;4921;43.214;27.936;2023-11-19T13:11:55;10.00;;;8.73;;
9763;SDS011;4921;43.214;27.936;2023-11-19T13:14:35;9.90;;;7.53;;
9763;SDS011;4921;43.214;27.936;2023-11-19T13:17:03;9.40;;;8.40;;
9763;SDS011;4921;43.214;27.936;2023-11-19T13:19:31;8.73;;;7.87;;
9763;SDS011;4921;43.214;27.936;2023-11-19T13:21:58;10.27;;;8.57;;
9763;SDS011;4921;43.214;27.936;2023-11-19T13:24:24;11.07;;;8.30;;
9763;SDS011;4921;43.214;27.936;2023-11-19T13:26:51;14.93;;;8.67;;
9763;SDS011;4921;43.214;27.936;2023-11-19T13:29:20;8.93;;;8.03;;
9763;SDS011;4921;43.214;27.936;2023-11-19T13:31:47;9.17;;;8.27;;
9763;SDS011;4921;43.214;27.936;2023-11-19T13:34:14;9.63;;;8.63;;
9763;SDS011;4921;43.214;27.936;2023-11-19T13:36:41;9.30;;;8.33;;
9763;SDS011;4921;43.214;27.936;2023-11-19T13:39:08;9.77;;;8.77;;
9763;SDS011;4921;43.214;27.936;2023-11-19T13:41:37;10.37;;;8.33;;
9763;SDS011;4921;43.214;27.936;2023-11-19T13:44:05;9.33;;;7.77;;
9763;SDS011;4921;43.214;27.936;2023-11-19T13:46:33;13.67;;;9.00;;
9763;SDS011;4921;43.214;27.936;2023-11-19T13:49:00;9.57;;;8.57;;
9763;SDS011;4921;43.214;27.936;2023-11-19T13:51:28;9.47;;;8.47;;
9763;SDS011;4921;43.214;27.936;2023-11-19T13:53:55;12.53;;;9.23;;
9763;SDS011;4921;43.214;27.936;2023-11-19T13:56:22;9.73;;;8.10;;
9763;SDS011;4921;43.214;27.936;2023-11-19T13:58:49;9.83;;;8.83;;
9763;SDS011;4921;43.214;27.936;2023-11-19T14:01:16;9.67;;;8.70;;
9763;SDS011;4921;43.214;27.936;2023-11-19T14:03:44;9.57;;;8.23;;
9763;SDS011;4921;43.214;27.936;2023-11-19T14:06:12;9.60;;;8.60;;
9763;SDS011;4921;43.214;27.936;2023-11-19T14:08:39;9.30;;;8.37;;
9763;SDS011;4921;43.214;27.936;2023-11-19T14:11:06;9.20;;;8.20;;
9763;SDS011;4921;43.214;27.936;2023-11-19T14:13:33;9.27;;;8.30;;
9763;SDS011;4921;43.214;27.936;2023-11-19T14:16:01;9.93;;;8.27;;
9763;SDS011;4921;43.214;27.936;2023-11-19T14:18:28;9.20;;;8.30;;
9763;SDS011;4921;43.214;27.936;2023-11-19T14:20:56;10.47;;;8.70;;
9763;SDS011;4921;43.214;27.936;2023-11-19T14:23:25;9.20;;;8.30;;
9763;SDS011;4921;43.214;27.936;2023-11-19T14:25:52;12.07;;;8.67;;
9763;SDS011;4921;43.214;27.936;2023-11-19T14:28:22;9.10;;;8.20;;
9763;SDS011;4921;43.214;27.936;2023-11-19T14:30:50;10.73;;;8.63;;
9763;SDS011;4921;43.214;27.936;2023-11-19T14:33:22;9.50;;;8.20;;
9763;SDS011;4921;43.214;27.936;2023-11-19T14:35:49;9.30;;;8.40;;
9763;SDS011;4921;43.214;27.936;2023-11-19T14:38:18;9.87;;;8.40;;
9763;SDS011;4921;43.214;27.936;2023-11-19T14:40:45;12.50;;;8.40;;
9763;SDS011;4921;43.214;27.936;2023-11-19T14:43:13;13.40;;;9.47;;
9763;SDS011;4921;43.214;27.936;2023-11-19T14:45:40;9.83;;;8.43;;
9763;SDS011;4921;43.214;27.936;2023-11-19T14:48:07;10.37;;;8.70;;
9763;SDS011;4921;43.214;27.936;2023-11-19T14:50:35;10.10;;;8.97;;
9763;SDS011;4921;43.214;27.936;2023-11-19T14:53:02;12.10;;;9.20;;
9763;SDS011;4921;43.214;27.936;2023-11-19T14:55:31;12.13;;;9.50;;
9763;SDS011;4921;43.214;27.936;2023-11-19T14:57:58;9.80;;;8.80;;
9763;SDS011;4921;43.214;27.936;2023-11-19T15:00:25;9.80;;;8.80;;
9763;SDS011;4921;43.214;27.936;2023-11-19T15:02:52;14.90;;;8.47;;
9763;SDS011;4921;43.214;27.936;2023-11-19T15:05:19;9.70;;;8.60;;
9763;SDS011;4921;43.214;27.936;2023-11-19T15:07:46;10.50;;;8.60;;
9763;SDS011;4921;43.214;27.936;2023-11-19T15:10:13;9.93;;;8.93;;
9763;SDS011;4921;43.214;27.936;2023-11-19T15:12:42;11.50;;;9.63;;
9763;SDS011;4921;43.214;27.936;2023-11-19T15:15:09;10.33;;;8.73;;
9763;SDS011;4921;43.214;27.936;2023-11-19T15:17:38;9.40;;;8.33;;
9763;SDS011;4921;43.214;27.936;2023-11-19T15:20:06;10.17;;;8.70;;